sensor_id;sensor_type;location;lat;lon;timestamp;P1;durP1;ratioP1;P2;durP2;ratioP2
16101;SDS011;56411;52.964;10.540;2022-12-05T00:00:59;63.70;;;29.87;;
16101;SDS011;56411;52.964;10.540;2022-12-05T00:03:39;62.63;;;29.30;;
16101;SDS011;56411;52.964;10.540;2022-12-05T00:06:06;62.63;;;30.20;;
16101;SDS011;56411;52.964;10.540;2022-12-05T00:08:34;66.57;;;30.70;;
16101;SDS011;56411;52.964;10.540;2022-12-05T00:11:01;61.43;;;29.60;;
16101;SDS011;56411;52.964;10.540;2022-12-05T00:13:29;65.40;;;29.43;;
16101;SDS011;56411;52.964;10.540;2022-12-05T00:15:56;64.90;;;28.97;;
16101;SDS011;56411;52.964;10.540;2022-12-05T00:18:23;61.13;;;30.17;;
16101;SDS011;56411;52.964;10.540;2022-12-05T00:20:52;66.67;;;30.50;;
16101;SDS011;56411;52.964;10.540;2022-12-05T00:23:19;64.27;;;29.63;;
16101;SDS011;56411;52.964;10.540;2022-12-05T00:25:47;61.57;;;29.43;;
16101;SDS011;56411;52.964;10.540;2022-12-05T00:28:14;64.57;;;28.83;;
16101;SDS011;56411;52.964;10.540;2022-12-05T00:30:41;68.03;;;30.27;;
16101;SDS011;56411;52.964;10.540;2022-12-05T00:33:08;62.87;;;28.37;;
16101;SDS011;56411;52.964;10.540;2022-12-05T00:35:35;58.43;;;27.73;;
16101;SDS011;56411;52.964;10.540;2022-12-05T00:38:04;67.67;;;29.93;;
16101;SDS011;56411;52.964;10.540;2022-12-05T00:40:32;65.47;;;29.13;;
16101;SDS011;56411;52.964;10.540;2022-12-05T00:43:00;58.77;;;29.03;;
16101;SDS011;56411;52.964;10.540;2022-12-05T00:45:28;64.67;;;29.07;;
16101;SDS011;56411;52.964;10.540;2022-12-05T00:47:55;59.10;;;27.70;;
16101;SDS011;56411;52.964;10.540;2022-12-05T00:50:23;67.37;;;28.63;;
16101;SDS011;56411;52.964;10.540;2022-12-05T00:52:50;65.50;;;28.10;;
16101;SDS011;56411;52.964;10.540;2022-12-05T00:55:19;64.00;;;29.20;;
16101;SDS011;56411;52.964;10.540;2022-12-05T00:57:46;70.73;;;29.60;;
16101;SDS011;56411;52.964;10.540;2022-12-05T01:00:14;70.27;;;29.77;;
16101;SDS011;56411;52.964;10.540;2022-12-05T01:02:42;64.73;;;28.93;;
16101;SDS011;56411;52.964;10.540;2022-12-05T01:05:09;61.87;;;27.67;;
16101;SDS011;56411;52.964;10.540;2022-12-05T01:07:36;66.00;;;28.30;;
16101;SDS011;56411;52.964;10.540;2022-12-05T01:10:04;62.90;;;27.77;;
16101;SDS011;56411;52.964;10.540;2022-12-05T01:12:34;66.27;;;28.97;;
16101;SDS011;56411;52.964;10.540;2022-12-05T01:15:01;60.77;;;27.67;;
16101;SDS011;56411;52.964;10.540;2022-12-05T01:17:29;66.30;;;28.77;;
16101;SDS011;56411;52.964;10.540;2022-12-05T01:19:59;62.27;;;28.13;;
16101;SDS011;56411;52.964;10.540;2022-12-05T01:22:26;60.07;;;28.03;;
16101;SDS011;56411;52.964;10.540;2022-12-05T01:24:53;57.73;;;27.80;;
16101;SDS011;56411;52.964;10.540;2022-12-05T01:27:20;59.30;;;26.40;;
16101;SDS011;56411;52.964;10.540;2022-12-05T01:29:49;63.57;;;27.70;;
16101;SDS011;56411;52.964;10.540;2022-12-05T01:32:16;67.23;;;28.10;;
16101;SDS011;56411;52.964;10.540;2022-12-05T01:34:43;58.37;;;27.80;;
16101;SDS011;56411;52.964;10.540;2022-12-05T01:37:11;62.53;;;28.17;;
16101;SDS011;56411;52.964;10.540;2022-12-05T01:39:38;58.13;;;28.03;;
16101;SDS011;56411;52.964;10.540;2022-12-05T01:42:05;58.17;;;26.80;;
16101;SDS011;56411;52.964;10.540;2022-12-05T01:47:33;62.20;;;28.10;;
16101;SDS011;56411;52.964;10.540;2022-12-05T01:50:02;59.10;;;26.90;;
16101;SDS011;56411;52.964;10.540;2022-12-05T01:52:31;71.07;;;30.40;;
16101;SDS011;56411;52.964;10.540;2022-12-05T01:55:02;66.13;;;29.00;;
16101;SDS011;56411;52.964;10.540;2022-12-05T01:57:32;61.63;;;27.67;;
16101;SDS011;56411;52.964;10.540;2022-12-05T02:00:01;64.77;;;27.70;;
16101;SDS011;56411;52.964;10.540;2022-12-05T02:02:34;63.53;;;28.93;;
16101;SDS011;56411;52.964;10.540;2022-12-05T02:05:03;61.80;;;28.53;;
16101;SDS011;56411;52.964;10.540;2022-12-05T02:07:33;62.10;;;27.17;;
16101;SDS011;56411;52.964;10.540;2022-12-05T02:10:03;66.83;;;29.20;;
16101;SDS011;56411;52.964;10.540;2022-12-05T02:12:32;61.03;;;28.43;;
16101;SDS011;56411;52.964;10.540;2022-12-05T02:15:08;65.23;;;28.00;;
16101;SDS011;56411;52.964;10.540;2022-12-05T02:17:46;61.97;;;27.93;;
16101;SDS011;56411;52.964;10.540;2022-12-05T02:20:29;61.50;;;26.77;;
16101;SDS011;56411;52.964;10.540;2022-12-05T02:23:12;62.90;;;28.30;;
16101;SDS011;56411;52.964;10.540;2022-12-05T02:26:04;59.80;;;27.23;;
16101;SDS011;56411;52.964;10.540;2022-12-05T02:29:03;60.50;;;26.70;;
16101;SDS011;56411;52.964;10.540;2022-12-05T02:31:54;56.40;;;27.40;;
16101;SDS011;56411;52.964;10.540;2022-12-05T02:34:30;64.83;;;27.43;;
16101;SDS011;56411;52.964;10.540;2022-12-05T02:37:02;59.43;;;27.23;;
16101;SDS011;56411;52.964;10.540;2022-12-05T02:39:38;54.67;;;26.97;;
16101;SDS011;56411;52.964;10.540;2022-12-05T02:42:10;61.63;;;27.07;;
16101;SDS011;56411;52.964;10.540;2022-12-05T02:44:42;59.57;;;26.90;;
16101;SDS011;56411;52.964;10.540;2022-12-05T02:47:14;58.37;;;25.90;;
16101;SDS011;56411;52.964;10.540;2022-12-05T02:49:45;61.47;;;26.57;;
16101;SDS011;56411;52.964;10.540;2022-12-05T02:52:15;55.20;;;26.37;;
16101;SDS011;56411;52.964;10.540;2022-12-05T02:54:43;55.40;;;26.37;;
16101;SDS011;56411;52.964;10.540;2022-12-05T02:57:14;60.33;;;27.33;;
16101;SDS011;56411;52.964;10.540;2022-12-05T02:59:42;55.43;;;25.67;;
16101;SDS011;56411;52.964;10.540;2022-12-05T03:02:20;56.60;;;26.03;;
16101;SDS011;56411;52.964;10.540;2022-12-05T03:04:49;64.50;;;26.97;;
16101;SDS011;56411;52.964;10.540;2022-12-05T03:07:16;57.17;;;26.53;;
16101;SDS011;56411;52.964;10.540;2022-12-05T03:09:48;56.43;;;24.37;;
16101;SDS011;56411;52.964;10.540;2022-12-05T03:12:21;58.00;;;26.43;;
16101;SDS011;56411;52.964;10.540;2022-12-05T03:14:52;54.17;;;25.13;;
16101;SDS011;56411;52.964;10.540;2022-12-05T03:17:25;55.13;;;24.37;;
16101;SDS011;56411;52.964;10.540;2022-12-05T03:19:59;55.10;;;25.40;;
16101;SDS011;56411;52.964;10.540;2022-12-05T03:22:31;52.83;;;25.50;;
16101;SDS011;56411;52.964;10.540;2022-12-05T03:25:02;53.90;;;25.23;;
16101;SDS011;56411;52.964;10.540;2022-12-05T03:27:32;55.23;;;25.47;;
16101;SDS011;56411;52.964;10.540;2022-12-05T03:30:06;54.53;;;25.50;;
16101;SDS011;56411;52.964;10.540;2022-12-05T03:32:38;51.97;;;24.80;;
16101;SDS011;56411;52.964;10.540;2022-12-05T03:35:10;51.73;;;23.97;;
16101;SDS011;56411;52.964;10.540;2022-12-05T03:37:44;55.00;;;26.10;;
16101;SDS011;56411;52.964;10.540;2022-12-05T03:40:21;55.27;;;24.83;;
16101;SDS011;56411;52.964;10.540;2022-12-05T03:42:54;60.40;;;26.23;;
16101;SDS011;56411;52.964;10.540;2022-12-05T03:45:26;57.93;;;26.03;;
16101;SDS011;56411;52.964;10.540;2022-12-05T03:48:04;57.30;;;27.10;;
16101;SDS011;56411;52.964;10.540;2022-12-05T03:50:40;55.47;;;24.10;;
16101;SDS011;56411;52.964;10.540;2022-12-05T03:53:12;60.37;;;26.10;;
16101;SDS011;56411;52.964;10.540;2022-12-05T03:55:43;61.90;;;26.43;;
16101;SDS011;56411;52.964;10.540;2022-12-05T03:58:19;59.73;;;27.27;;
16101;SDS011;56411;52.964;10.540;2022-12-05T04:00:52;57.83;;;25.40;;
16101;SDS011;56411;52.964;10.540;2022-12-05T04:03:23;64.83;;;27.90;;
16101;SDS011;56411;52.964;10.540;2022-12-05T04:06:03;62.40;;;26.73;;
16101;SDS011;56411;52.964;10.540;2022-12-05T04:08:36;70.87;;;27.40;;
16101;SDS011;56411;52.964;10.540;2022-12-05T04:11:08;61.13;;;28.07;;
16101;SDS011;56411;52.964;10.540;2022-12-05T04:13:40;69.43;;;27.93;;
16101;SDS011;56411;52.964;10.540;2022-12-05T04:16:13;66.53;;;28.27;;
16101;SDS011;56411;52.964;10.540;2022-12-05T04:19:04;72.23;;;28.47;;
16101;SDS011;56411;52.964;10.540;2022-12-05T04:21:36;68.63;;;28.57;;
16101;SDS011;56411;52.964;10.540;2022-12-05T04:24:08;74.47;;;30.10;;
16101;SDS011;56411;52.964;10.540;2022-12-05T04:26:58;76.97;;;30.33;;
16101;SDS011;56411;52.964;10.540;2022-12-05T04:29:36;79.90;;;30.33;;
16101;SDS011;56411;52.964;10.540;2022-12-05T04:32:10;76.17;;;29.00;;
16101;SDS011;56411;52.964;10.540;2022-12-05T04:34:41;87.57;;;32.33;;
16101;SDS011;56411;52.964;10.540;2022-12-05T04:37:16;79.23;;;31.03;;
16101;SDS011;56411;52.964;10.540;2022-12-05T04:39:47;79.40;;;30.80;;
16101;SDS011;56411;52.964;10.540;2022-12-05T04:42:20;81.40;;;31.07;;
16101;SDS011;56411;52.964;10.540;2022-12-05T04:44:52;81.37;;;33.27;;
16101;SDS011;56411;52.964;10.540;2022-12-05T04:47:21;89.00;;;31.53;;
16101;SDS011;56411;52.964;10.540;2022-12-05T04:49:53;89.20;;;31.53;;
16101;SDS011;56411;52.964;10.540;2022-12-05T04:52:22;81.63;;;31.73;;
16101;SDS011;56411;52.964;10.540;2022-12-05T04:54:52;88.63;;;33.00;;
16101;SDS011;56411;52.964;10.540;2022-12-05T04:57:25;96.83;;;33.17;;
16101;SDS011;56411;52.964;10.540;2022-12-05T04:59:55;91.90;;;33.90;;
16101;SDS011;56411;52.964;10.540;2022-12-05T05:02:49;90.23;;;32.03;;
16101;SDS011;56411;52.964;10.540;2022-12-05T05:05:22;93.67;;;32.37;;
16101;SDS011;56411;52.964;10.540;2022-12-05T05:07:50;94.53;;;31.33;;
16101;SDS011;56411;52.964;10.540;2022-12-05T05:10:21;88.60;;;32.47;;
16101;SDS011;56411;52.964;10.540;2022-12-05T05:12:56;88.27;;;32.83;;
16101;SDS011;56411;52.964;10.540;2022-12-05T05:15:23;85.40;;;31.57;;
16101;SDS011;56411;52.964;10.540;2022-12-05T05:17:50;90.40;;;32.53;;
16101;SDS011;56411;52.964;10.540;2022-12-05T05:20:17;89.07;;;32.50;;
16101;SDS011;56411;52.964;10.540;2022-12-05T05:22:53;87.07;;;31.23;;
16101;SDS011;56411;52.964;10.540;2022-12-05T05:25:21;79.67;;;29.87;;
16101;SDS011;56411;52.964;10.540;2022-12-05T05:27:49;84.27;;;30.70;;
16101;SDS011;56411;52.964;10.540;2022-12-05T05:30:18;89.70;;;31.33;;
16101;SDS011;56411;52.964;10.540;2022-12-05T05:32:46;91.03;;;31.80;;
16101;SDS011;56411;52.964;10.540;2022-12-05T05:35:14;86.63;;;30.50;;
16101;SDS011;56411;52.964;10.540;2022-12-05T05:37:41;89.53;;;32.17;;
16101;SDS011;56411;52.964;10.540;2022-12-05T05:40:12;90.73;;;31.70;;
16101;SDS011;56411;52.964;10.540;2022-12-05T05:42:42;95.03;;;31.50;;
16101;SDS011;56411;52.964;10.540;2022-12-05T05:45:11;81.53;;;29.87;;
16101;SDS011;56411;52.964;10.540;2022-12-05T05:47:39;79.87;;;29.83;;
16101;SDS011;56411;52.964;10.540;2022-12-05T05:50:07;76.20;;;27.27;;
16101;SDS011;56411;52.964;10.540;2022-12-05T05:52:36;82.90;;;27.50;;
16101;SDS011;56411;52.964;10.540;2022-12-05T05:55:04;75.63;;;27.00;;
16101;SDS011;56411;52.964;10.540;2022-12-05T05:57:35;70.50;;;26.83;;
16101;SDS011;56411;52.964;10.540;2022-12-05T06:00:03;70.03;;;26.33;;
16101;SDS011;56411;52.964;10.540;2022-12-05T06:02:32;78.80;;;26.40;;
16101;SDS011;56411;52.964;10.540;2022-12-05T06:05:00;68.20;;;25.57;;
16101;SDS011;56411;52.964;10.540;2022-12-05T06:07:27;70.90;;;26.90;;
16101;SDS011;56411;52.964;10.540;2022-12-05T06:09:55;75.63;;;26.87;;
16101;SDS011;56411;52.964;10.540;2022-12-05T06:12:22;78.20;;;26.80;;
16101;SDS011;56411;52.964;10.540;2022-12-05T06:14:51;73.60;;;26.13;;
16101;SDS011;56411;52.964;10.540;2022-12-05T06:17:18;79.87;;;26.50;;
16101;SDS011;56411;52.964;10.540;2022-12-05T06:19:45;73.03;;;27.47;;
16101;SDS011;56411;52.964;10.540;2022-12-05T06:22:13;80.37;;;28.37;;
16101;SDS011;56411;52.964;10.540;2022-12-05T06:24:40;77.00;;;27.13;;
16101;SDS011;56411;52.964;10.540;2022-12-05T06:27:07;80.40;;;28.50;;
16101;SDS011;56411;52.964;10.540;2022-12-05T06:29:34;76.93;;;27.57;;
16101;SDS011;56411;52.964;10.540;2022-12-05T06:32:03;79.57;;;26.93;;
16101;SDS011;56411;52.964;10.540;2022-12-05T06:34:30;71.07;;;28.00;;
16101;SDS011;56411;52.964;10.540;2022-12-05T06:36:59;76.70;;;29.00;;
16101;SDS011;56411;52.964;10.540;2022-12-05T06:39:26;74.17;;;26.57;;
16101;SDS011;56411;52.964;10.540;2022-12-05T06:41:53;74.87;;;26.53;;
16101;SDS011;56411;52.964;10.540;2022-12-05T06:44:20;72.20;;;26.97;;
16101;SDS011;56411;52.964;10.540;2022-12-05T06:46:50;70.60;;;25.87;;
16101;SDS011;56411;52.964;10.540;2022-12-05T06:49:20;74.23;;;26.27;;
16101;SDS011;56411;52.964;10.540;2022-12-05T06:51:50;75.70;;;27.43;;
16101;SDS011;56411;52.964;10.540;2022-12-05T06:54:17;71.10;;;25.17;;
16101;SDS011;56411;52.964;10.540;2022-12-05T06:56:44;67.37;;;25.90;;
16101;SDS011;56411;52.964;10.540;2022-12-05T06:59:11;69.03;;;25.93;;
16101;SDS011;56411;52.964;10.540;2022-12-05T07:01:38;70.20;;;24.87;;
16101;SDS011;56411;52.964;10.540;2022-12-05T07:04:06;67.23;;;25.33;;
16101;SDS011;56411;52.964;10.540;2022-12-05T07:06:39;83.50;;;26.20;;
16101;SDS011;56411;52.964;10.540;2022-12-05T07:09:07;75.13;;;26.10;;
16101;SDS011;56411;52.964;10.540;2022-12-05T07:11:35;82.00;;;28.43;;
16101;SDS011;56411;52.964;10.540;2022-12-05T07:14:03;71.00;;;27.07;;
16101;SDS011;56411;52.964;10.540;2022-12-05T07:16:31;87.93;;;30.17;;
16101;SDS011;56411;52.964;10.540;2022-12-05T07:18:58;75.60;;;29.00;;
16101;SDS011;56411;52.964;10.540;2022-12-05T07:21:25;79.93;;;28.60;;
16101;SDS011;56411;52.964;10.540;2022-12-05T07:23:54;93.20;;;29.60;;
16101;SDS011;56411;52.964;10.540;2022-12-05T07:26:22;88.97;;;29.10;;
16101;SDS011;56411;52.964;10.540;2022-12-05T07:28:50;71.40;;;26.13;;
16101;SDS011;56411;52.964;10.540;2022-12-05T07:31:17;73.03;;;26.17;;
16101;SDS011;56411;52.964;10.540;2022-12-05T07:33:46;74.83;;;25.83;;
16101;SDS011;56411;52.964;10.540;2022-12-05T07:36:15;72.37;;;27.10;;
16101;SDS011;56411;52.964;10.540;2022-12-05T07:38:47;75.17;;;25.80;;
16101;SDS011;56411;52.964;10.540;2022-12-05T07:41:18;72.43;;;25.17;;
16101;SDS011;56411;52.964;10.540;2022-12-05T07:43:46;64.37;;;25.57;;
16101;SDS011;56411;52.964;10.540;2022-12-05T07:46:16;62.97;;;24.57;;
16101;SDS011;56411;52.964;10.540;2022-12-05T07:48:43;68.90;;;24.47;;
16101;SDS011;56411;52.964;10.540;2022-12-05T07:51:10;60.33;;;23.87;;
16101;SDS011;56411;52.964;10.540;2022-12-05T07:53:38;63.87;;;24.83;;
16101;SDS011;56411;52.964;10.540;2022-12-05T07:56:07;59.70;;;23.47;;
16101;SDS011;56411;52.964;10.540;2022-12-05T07:58:37;57.93;;;23.67;;
16101;SDS011;56411;52.964;10.540;2022-12-05T08:01:04;67.57;;;25.07;;
16101;SDS011;56411;52.964;10.540;2022-12-05T08:03:33;58.30;;;22.73;;
16101;SDS011;56411;52.964;10.540;2022-12-05T08:06:01;61.50;;;24.20;;
16101;SDS011;56411;52.964;10.540;2022-12-05T08:08:29;63.87;;;23.40;;
16101;SDS011;56411;52.964;10.540;2022-12-05T08:11:01;57.90;;;23.17;;
16101;SDS011;56411;52.964;10.540;2022-12-05T08:13:30;58.93;;;23.10;;
16101;SDS011;56411;52.964;10.540;2022-12-05T08:16:01;55.10;;;23.50;;
16101;SDS011;56411;52.964;10.540;2022-12-05T08:18:29;57.17;;;23.27;;
16101;SDS011;56411;52.964;10.540;2022-12-05T08:21:00;61.30;;;24.30;;
16101;SDS011;56411;52.964;10.540;2022-12-05T08:23:28;60.77;;;24.13;;
16101;SDS011;56411;52.964;10.540;2022-12-05T08:25:59;62.00;;;23.80;;
16101;SDS011;56411;52.964;10.540;2022-12-05T08:28:28;56.10;;;22.27;;
16101;SDS011;56411;52.964;10.540;2022-12-05T08:31:03;55.90;;;23.60;;
16101;SDS011;56411;52.964;10.540;2022-12-05T08:33:31;55.27;;;22.93;;
16101;SDS011;56411;52.964;10.540;2022-12-05T08:36:00;53.60;;;22.30;;
16101;SDS011;56411;52.964;10.540;2022-12-05T08:38:28;52.47;;;22.53;;
16101;SDS011;56411;52.964;10.540;2022-12-05T08:40:57;56.67;;;22.17;;
16101;SDS011;56411;52.964;10.540;2022-12-05T08:43:26;50.07;;;22.10;;
16101;SDS011;56411;52.964;10.540;2022-12-05T08:45:53;56.77;;;22.60;;
16101;SDS011;56411;52.964;10.540;2022-12-05T08:48:22;55.00;;;22.17;;
16101;SDS011;56411;52.964;10.540;2022-12-05T08:50:50;52.53;;;22.60;;
16101;SDS011;56411;52.964;10.540;2022-12-05T08:53:17;47.77;;;20.67;;
16101;SDS011;56411;52.964;10.540;2022-12-05T08:55:44;50.53;;;21.20;;
16101;SDS011;56411;52.964;10.540;2022-12-05T08:58:12;48.77;;;20.97;;
16101;SDS011;56411;52.964;10.540;2022-12-05T09:00:39;52.60;;;21.13;;
16101;SDS011;56411;52.964;10.540;2022-12-05T09:03:07;47.40;;;20.33;;
16101;SDS011;56411;52.964;10.540;2022-12-05T09:05:38;44.40;;;19.90;;
16101;SDS011;56411;52.964;10.540;2022-12-05T09:08:05;46.10;;;20.43;;
16101;SDS011;56411;52.964;10.540;2022-12-05T09:10:32;44.37;;;19.30;;
16101;SDS011;56411;52.964;10.540;2022-12-05T09:12:59;44.57;;;18.40;;
16101;SDS011;56411;52.964;10.540;2022-12-05T09:15:27;45.00;;;18.17;;
16101;SDS011;56411;52.964;10.540;2022-12-05T09:17:54;46.83;;;19.00;;
16101;SDS011;56411;52.964;10.540;2022-12-05T09:20:21;43.70;;;18.20;;
16101;SDS011;56411;52.964;10.540;2022-12-05T09:22:50;40.20;;;16.83;;
16101;SDS011;56411;52.964;10.540;2022-12-05T09:25:18;41.07;;;17.53;;
16101;SDS011;56411;52.964;10.540;2022-12-05T09:27:45;43.57;;;19.40;;
16101;SDS011;56411;52.964;10.540;2022-12-05T09:30:12;39.97;;;18.47;;
16101;SDS011;56411;52.964;10.540;2022-12-05T09:32:40;44.07;;;20.13;;
16101;SDS011;56411;52.964;10.540;2022-12-05T09:35:08;40.70;;;17.43;;
16101;SDS011;56411;52.964;10.540;2022-12-05T09:37:35;44.03;;;18.53;;
16101;SDS011;56411;52.964;10.540;2022-12-05T09:40:05;42.97;;;18.47;;
16101;SDS011;56411;52.964;10.540;2022-12-05T09:42:43;41.00;;;18.03;;
16101;SDS011;56411;52.964;10.540;2022-12-05T09:45:21;39.13;;;18.07;;
16101;SDS011;56411;52.964;10.540;2022-12-05T09:47:55;39.27;;;16.57;;
16101;SDS011;56411;52.964;10.540;2022-12-05T09:50:26;40.57;;;16.33;;
16101;SDS011;56411;52.964;10.540;2022-12-05T09:52:59;36.87;;;16.87;;
16101;SDS011;56411;52.964;10.540;2022-12-05T09:55:34;40.67;;;17.37;;
16101;SDS011;56411;52.964;10.540;2022-12-05T09:58:19;36.57;;;16.37;;
16101;SDS011;56411;52.964;10.540;2022-12-05T10:00:51;35.07;;;14.67;;
16101;SDS011;56411;52.964;10.540;2022-12-05T10:03:25;33.57;;;15.00;;
16101;SDS011;56411;52.964;10.540;2022-12-05T10:06:01;31.57;;;13.90;;
16101;SDS011;56411;52.964;10.540;2022-12-05T10:08:43;31.87;;;14.63;;
16101;SDS011;56411;52.964;10.540;2022-12-05T10:11:29;35.13;;;14.17;;
16101;SDS011;56411;52.964;10.540;2022-12-05T10:14:06;28.83;;;14.13;;
16101;SDS011;56411;52.964;10.540;2022-12-05T10:16:40;34.03;;;14.80;;
16101;SDS011;56411;52.964;10.540;2022-12-05T10:19:13;36.40;;;16.13;;
16101;SDS011;56411;52.964;10.540;2022-12-05T10:21:46;31.20;;;15.00;;
16101;SDS011;56411;52.964;10.540;2022-12-05T10:24:19;31.33;;;15.03;;
16101;SDS011;56411;52.964;10.540;2022-12-05T10:26:56;37.70;;;16.03;;
16101;SDS011;56411;52.964;10.540;2022-12-05T10:29:28;35.73;;;14.93;;
16101;SDS011;56411;52.964;10.540;2022-12-05T10:32:01;36.10;;;15.63;;
16101;SDS011;56411;52.964;10.540;2022-12-05T10:34:37;36.03;;;15.80;;
16101;SDS011;56411;52.964;10.540;2022-12-05T10:37:07;33.40;;;15.17;;
16101;SDS011;56411;52.964;10.540;2022-12-05T10:39:39;32.37;;;14.80;;
16101;SDS011;56411;52.964;10.540;2022-12-05T10:42:10;35.37;;;16.77;;
16101;SDS011;56411;52.964;10.540;2022-12-05T10:44:41;36.63;;;15.53;;
16101;SDS011;56411;52.964;10.540;2022-12-05T10:47:09;34.43;;;15.60;;
16101;SDS011;56411;52.964;10.540;2022-12-05T10:49:38;34.10;;;15.07;;
16101;SDS011;56411;52.964;10.540;2022-12-05T10:52:05;31.93;;;15.27;;
16101;SDS011;56411;52.964;10.540;2022-12-05T10:54:35;36.10;;;16.30;;
16101;SDS011;56411;52.964;10.540;2022-12-05T10:57:20;35.43;;;15.23;;
16101;SDS011;56411;52.964;10.540;2022-12-05T10:59:49;33.37;;;13.93;;
16101;SDS011;56411;52.964;10.540;2022-12-05T11:02:21;33.27;;;15.13;;
16101;SDS011;56411;52.964;10.540;2022-12-05T11:04:50;35.77;;;15.10;;
16101;SDS011;56411;52.964;10.540;2022-12-05T11:07:22;32.03;;;15.70;;
16101;SDS011;56411;52.964;10.540;2022-12-05T11:09:54;34.40;;;15.77;;
16101;SDS011;56411;52.964;10.540;2022-12-05T11:12:23;30.93;;;14.47;;
16101;SDS011;56411;52.964;10.540;2022-12-05T11:14:56;31.43;;;14.80;;
16101;SDS011;56411;52.964;10.540;2022-12-05T11:17:28;30.23;;;14.07;;
16101;SDS011;56411;52.964;10.540;2022-12-05T11:19:57;25.30;;;11.93;;
16101;SDS011;56411;52.964;10.540;2022-12-05T11:22:34;26.27;;;12.47;;
16101;SDS011;56411;52.964;10.540;2022-12-05T11:25:22;28.33;;;12.23;;
16101;SDS011;56411;52.964;10.540;2022-12-05T11:27:52;29.23;;;12.67;;
16101;SDS011;56411;52.964;10.540;2022-12-05T11:30:20;22.77;;;11.10;;
16101;SDS011;56411;52.964;10.540;2022-12-05T11:32:51;25.70;;;11.63;;
16101;SDS011;56411;52.964;10.540;2022-12-05T11:35:37;24.73;;;11.30;;
16101;SDS011;56411;52.964;10.540;2022-12-05T11:38:05;26.70;;;11.50;;
16101;SDS011;56411;52.964;10.540;2022-12-05T11:40:38;25.60;;;11.97;;
16101;SDS011;56411;52.964;10.540;2022-12-05T11:43:18;24.40;;;10.93;;
16101;SDS011;56411;52.964;10.540;2022-12-05T11:46:03;22.57;;;10.80;;
16101;SDS011;56411;52.964;10.540;2022-12-05T11:48:46;22.37;;;10.63;;
16101;SDS011;56411;52.964;10.540;2022-12-05T11:51:28;22.63;;;10.30;;
16101;SDS011;56411;52.964;10.540;2022-12-05T11:54:07;22.47;;;10.80;;
16101;SDS011;56411;52.964;10.540;2022-12-05T11:56:56;22.53;;;10.63;;
16101;SDS011;56411;52.964;10.540;2022-12-05T11:59:31;22.53;;;10.27;;
16101;SDS011;56411;52.964;10.540;2022-12-05T12:02:22;21.30;;;10.60;;
16101;SDS011;56411;52.964;10.540;2022-12-05T12:05:00;20.43;;;9.50;;
16101;SDS011;56411;52.964;10.540;2022-12-05T12:07:40;19.23;;;9.60;;
16101;SDS011;56411;52.964;10.540;2022-12-05T12:10:20;21.37;;;9.70;;
16101;SDS011;56411;52.964;10.540;2022-12-05T12:12:59;19.23;;;8.83;;
16101;SDS011;56411;52.964;10.540;2022-12-05T12:15:42;19.03;;;9.77;;
16101;SDS011;56411;52.964;10.540;2022-12-05T12:18:32;21.17;;;10.30;;
16101;SDS011;56411;52.964;10.540;2022-12-05T12:21:18;18.47;;;8.73;;
16101;SDS011;56411;52.964;10.540;2022-12-05T12:23:52;19.20;;;9.20;;
16101;SDS011;56411;52.964;10.540;2022-12-05T12:26:30;18.50;;;9.00;;
16101;SDS011;56411;52.964;10.540;2022-12-05T12:29:11;18.57;;;8.63;;
16101;SDS011;56411;52.964;10.540;2022-12-05T12:31:50;17.90;;;8.93;;
16101;SDS011;56411;52.964;10.540;2022-12-05T12:37:19;17.80;;;8.40;;
16101;SDS011;56411;52.964;10.540;2022-12-05T12:39:57;18.53;;;8.80;;
16101;SDS011;56411;52.964;10.540;2022-12-05T12:42:31;16.50;;;7.97;;
16101;SDS011;56411;52.964;10.540;2022-12-05T12:45:11;16.63;;;8.17;;
16101;SDS011;56411;52.964;10.540;2022-12-05T12:50:51;16.77;;;7.90;;
16101;SDS011;56411;52.964;10.540;2022-12-05T12:53:30;15.70;;;7.70;;
16101;SDS011;56411;52.964;10.540;2022-12-05T12:56:28;16.23;;;8.67;;
16101;SDS011;56411;52.964;10.540;2022-12-05T12:59:06;18.20;;;8.93;;
16101;SDS011;56411;52.964;10.540;2022-12-05T13:01:44;18.97;;;8.63;;
16101;SDS011;56411;52.964;10.540;2022-12-05T13:04:19;17.37;;;8.40;;
16101;SDS011;56411;52.964;10.540;2022-12-05T13:06:51;18.40;;;8.73;;
16101;SDS011;56411;52.964;10.540;2022-12-05T13:09:21;17.53;;;8.57;;
16101;SDS011;56411;52.964;10.540;2022-12-05T13:11:52;17.63;;;8.43;;
16101;SDS011;56411;52.964;10.540;2022-12-05T13:14:22;15.47;;;7.57;;
16101;SDS011;56411;52.964;10.540;2022-12-05T13:16:52;16.27;;;7.93;;
16101;SDS011;56411;52.964;10.540;2022-12-05T13:19:26;15.83;;;7.77;;
16101;SDS011;56411;52.964;10.540;2022-12-05T13:22:01;16.70;;;8.20;;
16101;SDS011;56411;52.964;10.540;2022-12-05T13:24:30;18.33;;;8.70;;
16101;SDS011;56411;52.964;10.540;2022-12-05T13:26:58;17.07;;;8.47;;
16101;SDS011;56411;52.964;10.540;2022-12-05T13:29:30;17.63;;;8.90;;
16101;SDS011;56411;52.964;10.540;2022-12-05T13:31:59;17.43;;;8.33;;
16101;SDS011;56411;52.964;10.540;2022-12-05T13:34:43;15.97;;;7.57;;
16101;SDS011;56411;52.964;10.540;2022-12-05T13:37:17;13.33;;;7.07;;
16101;SDS011;56411;52.964;10.540;2022-12-05T13:40:05;18.63;;;8.40;;
16101;SDS011;56411;52.964;10.540;2022-12-05T13:43:05;17.67;;;8.70;;
16101;SDS011;56411;52.964;10.540;2022-12-05T13:45:32;18.20;;;8.83;;
16101;SDS011;56411;52.964;10.540;2022-12-05T13:48:07;18.53;;;8.80;;
16101;SDS011;56411;52.964;10.540;2022-12-05T13:50:47;17.93;;;8.70;;
16101;SDS011;56411;52.964;10.540;2022-12-05T13:53:27;19.07;;;9.20;;
16101;SDS011;56411;52.964;10.540;2022-12-05T13:55:58;17.80;;;8.63;;
16101;SDS011;56411;52.964;10.540;2022-12-05T13:58:38;18.90;;;9.17;;
16101;SDS011;56411;52.964;10.540;2022-12-05T14:04:20;16.63;;;8.07;;
16101;SDS011;56411;52.964;10.540;2022-12-05T14:07:10;17.40;;;8.00;;
16101;SDS011;56411;52.964;10.540;2022-12-05T14:09:47;15.83;;;7.70;;
16101;SDS011;56411;52.964;10.540;2022-12-05T14:12:29;16.33;;;8.07;;
16101;SDS011;56411;52.964;10.540;2022-12-05T14:15:22;16.87;;;8.07;;
16101;SDS011;56411;52.964;10.540;2022-12-05T14:17:54;17.80;;;7.60;;
16101;SDS011;56411;52.964;10.540;2022-12-05T14:20:24;16.10;;;8.03;;
16101;SDS011;56411;52.964;10.540;2022-12-05T14:23:16;16.00;;;8.40;;
16101;SDS011;56411;52.964;10.540;2022-12-05T14:26:01;16.23;;;7.83;;
16101;SDS011;56411;52.964;10.540;2022-12-05T14:28:43;15.70;;;8.07;;
16101;SDS011;56411;52.964;10.540;2022-12-05T14:31:30;17.07;;;8.13;;
16101;SDS011;56411;52.964;10.540;2022-12-05T14:36:57;18.17;;;8.53;;
16101;SDS011;56411;52.964;10.540;2022-12-05T14:39:37;20.83;;;9.73;;
16101;SDS011;56411;52.964;10.540;2022-12-05T14:42:19;22.27;;;11.93;;
16101;SDS011;56411;52.964;10.540;2022-12-05T14:44:52;24.67;;;13.03;;
16101;SDS011;56411;52.964;10.540;2022-12-05T14:47:23;25.10;;;14.37;;
16101;SDS011;56411;52.964;10.540;2022-12-05T14:49:56;26.30;;;14.23;;
16101;SDS011;56411;52.964;10.540;2022-12-05T14:52:28;22.47;;;12.07;;
16101;SDS011;56411;52.964;10.540;2022-12-05T14:55:01;20.67;;;11.67;;